Time;durP1;ratioP1;P1;durP2;ratioP2;P2;SDS_P1;SDS_P2;PMS_P1;PMS_P2;Temp;Humidity;BMP_temperature;BMP_pressure;BME280_temperature;BME280_humidity;BME280_pressure;Samples;Min_cycle;Max_cycle;Signal;HPM_P1;HPM_P2
2023/10/10 00:02:20;;;;;;;23.02;13.07;;;;;;;-146.27;84.59;81902.09;5020607;28;20037;-67
2023/10/10 00:04:49;;;;;;;21.73;13.32;;;;;;;-146.27;84.86;81916.16;5021006;28;20021;-67
2023/10/10 00:07:16;;;;;;;29.80;14.13;;;;;;;-146.27;84.88;81912.16;5018905;28;20104;-67
2023/10/10 00:09:44;;;;;;;25.27;14.30;;;;;;;-146.27;84.89;81934.25;5019746;28;20410;-67
2023/10/10 00:12:18;;;;;;;21.60;14.07;;;;;;;-146.27;85.23;81942.28;5023873;28;20083;-67
2023/10/10 00:14:50;;;;;;;26.23;14.43;;;;;;;-146.27;85.07;81962.34;5016419;28;20064;-67
2023/10/10 00:17:15;;;;;;;26.65;14.55;;;;;;;-146.27;84.67;82000.53;5022880;28;20060;-66
2023/10/10 00:19:44;;;;;;;25.08;14.82;;;;;;;-146.27;85.22;82018.59;5022671;28;20021;-67
2023/10/10 00:22:10;;;;;;;25.67;15.20;;;;;;;-146.27;85.42;81990.47;5014957;28;20025;-66
2023/10/10 00:24:35;;;;;;;27.83;17.83;;;;;;;-146.27;85.49;81974.41;5016654;28;20433;-66
2023/10/10 00:27:15;;;;;;;35.13;18.20;;;;;;;-146.27;85.53;82002.53;5017760;28;20051;-66
2023/10/10 00:29:44;;;;;;;31.77;17.40;;;;;;;-146.27;85.38;81990.47;5021597;28;20457;-66
2023/10/10 00:32:22;;;;;;;32.05;17.23;;;;;;;-146.27;84.86;81954.31;5021688;28;20463;-66
2023/10/10 00:34:49;;;;;;;37.03;19.02;;;;;;;-146.27;85.03;81978.44;5018905;28;20104;-66
2023/10/10 00:37:25;;;;;;;34.85;17.92;;;;;;;-146.27;85.37;81970.41;5023351;28;20034;-66
2023/10/10 00:39:55;;;;;;;34.97;17.75;;;;;;;-146.27;85.24;81966.38;5023598;28;20021;-66
2023/10/10 00:42:40;;;;;;;33.72;18.77;;;;;;;-146.27;85.57;81978.44;5022649;28;21206;-66
2023/10/10 00:45:12;;;;;;;31.40;19.08;;;;;;;-146.27;85.59;81990.47;5022447;28;20219;-66
2023/10/10 00:47:41;;;;;;;31.75;17.17;;;;;;;-146.27;85.59;81978.44;5017850;28;20120;-66
2023/10/10 00:50:08;;;;;;;41.88;20.08;;;;;;;-146.27;85.31;81990.47;5015714;28;20108;-66
2023/10/10 00:52:38;;;;;;;31.60;18.42;;;;;;;-146.27;85.04;81976.41;5027802;28;20381;-66
2023/10/10 00:55:04;;;;;;;33.15;18.98;;;;;;;-146.27;85.42;81982.44;5016090;28;20405;-66
2023/10/10 00:57:35;;;;;;;41.30;19.92;;;;;;;-146.27;85.90;81978.44;5028481;28;20141;-66
2023/10/10 01:00:07;;;;;;;32.22;19.40;;;;;;;-146.27;86.02;81970.41;5028868;28;20071;-66
2023/10/10 01:02:34;;;;;;;32.63;19.85;;;;;;;-146.27;86.08;81978.44;5024372;28;20025;-66
2023/10/10 01:05:05;;;;;;;39.67;21.17;;;;;;;-146.27;86.45;81960.34;5014668;28;20029;-66
2023/10/10 01:07:34;;;;;;;38.70;20.20;;;;;;;-146.27;86.53;81958.34;5023000;28;20029;-66
2023/10/10 01:10:11;;;;;;;37.63;20.35;;;;;;;-146.27;86.51;81956.34;5021425;28;20032;-66
2023/10/10 01:12:39;;;;;;;40.30;20.55;;;;;;;-146.27;86.56;81934.25;5030288;28;20034;-66
2023/10/10 01:15:16;;;;;;;35.03;19.45;;;;;;;-146.27;86.37;81938.25;5024737;28;20042;-66
2023/10/10 01:17:43;;;;;;;35.75;19.48;;;;;;;-146.27;86.14;81928.22;5022104;28;20026;-66
2023/10/10 01:20:19;;;;;;;41.30;19.92;;;;;;;-146.27;85.83;81932.22;5023020;28;20103;-66
2023/10/10 01:22:48;;;;;;;35.22;18.98;;;;;;;-146.27;85.78;81982.44;5021165;28;20057;-66
2023/10/10 01:28:02;;;;;;;41.78;17.75;;;;;;;-146.27;85.45;81962.34;5019413;28;20049;-66
2023/10/10 01:30:48;;;;;;;39.22;19.95;;;;;;;-146.27;85.59;81976.41;5021487;28;20040;-66
2023/10/10 01:33:14;;;;;;;33.42;17.05;;;;;;;-146.27;85.83;81994.50;5020889;28;20504;-66
2023/10/10 01:35:44;;;;;;;37.35;19.25;;;;;;;-146.27;86.09;81954.31;5022731;28;20516;-66
2023/10/10 01:38:38;;;;;;;32.83;19.40;;;;;;;-146.27;86.29;81950.31;5019561;28;20478;-66
2023/10/10 01:41:15;;;;;;;36.38;19.90;;;;;;;-146.27;86.68;81970.41;5030624;28;20112;-66
2023/10/10 01:43:46;;;;;;;35.50;19.98;;;;;;;-146.27;86.48;81930.22;5021656;28;20148;-66
2023/10/10 01:46:27;;;;;;;35.88;19.00;;;;;;;-146.27;86.69;81918.16;5017815;28;20531;-66
2023/10/10 01:48:56;;;;;;;37.97;20.83;;;;;;;-146.27;86.67;81922.19;5028112;28;20053;-66
2023/10/10 01:51:25;;;;;;;45.58;21.63;;;;;;;-146.27;86.54;81946.28;5027537;28;20036;-66
2023/10/10 01:53:55;;;;;;;37.65;21.38;;;;;;;-146.27;86.53;81962.34;5022544;28;20121;-66
2023/10/10 01:56:22;;;;;;;39.35;20.45;;;;;;;-146.27;86.92;81942.28;5020229;28;20060;-66
2023/10/10 01:58:53;;;;;;;36.95;19.60;;;;;;;-146.27;86.85;81976.41;5035796;28;20033;-66
2023/10/10 02:01:19;;;;;;;38.10;20.48;;;;;;;-146.27;86.55;81946.28;5020234;28;20026;-66
2023/10/10 02:03:48;;;;;;;36.15;19.35;;;;;;;-146.27;86.36;81972.41;5024435;28;20026;-66
2023/10/10 02:06:23;;;;;;;40.38;19.95;;;;;;;-146.27;86.52;81928.22;5019399;28;20026;-66
2023/10/10 02:08:51;;;;;;;33.50;19.65;;;;;;;-146.27;86.20;81946.28;5024817;28;20566;-66
2023/10/10 02:11:20;;;;;;;33.70;19.33;;;;;;;-146.27;86.42;81970.41;5023687;28;20045;-66
2023/10/10 02:13:50;;;;;;;31.17;18.60;;;;;;;-146.27;86.14;81978.44;5028535;28;20032;-66
2023/10/10 02:16:23;;;;;;;37.30;20.50;;;;;;;-146.27;86.49;81966.38;5029912;28;20542;-66
2023/10/10 02:18:51;;;;;;;37.75;20.52;;;;;;;-146.27;86.62;81990.47;5020605;28;20432;-66
2023/10/10 02:21:42;;;;;;;33.38;17.73;;;;;;;-146.27;86.29;81984.47;5018077;28;20501;-66
2023/10/10 02:24:41;;;;;;;39.60;19.92;;;;;;;-146.27;86.15;82012.56;5028447;28;20064;-65
2023/10/10 02:27:04;;;;;;;36.60;18.98;;;;;;;-146.27;86.40;82030.66;5024702;28;20033;-66
2023/10/10 02:29:35;;;;;;;36.70;19.15;;;;;;;-146.27;86.77;82002.53;5023988;28;20017;-66
2023/10/10 02:32:12;;;;;;;35.97;18.70;;;;;;;-146.27;86.40;82014.59;5028056;28;20091;-66
2023/10/10 02:34:42;;;;;;;38.38;19.83;;;;;;;-146.27;86.91;82032.66;5026013;28;20025;-66
2023/10/10 02:37:41;;;;;;;36.35;20.10;;;;;;;-146.27;86.57;82032.66;5021024;28;20065;-66
2023/10/10 02:40:15;;;;;;;32.20;18.55;;;;;;;-146.27;86.19;81968.38;5024092;28;20033;-66
2023/10/10 02:42:49;;;;;;;36.28;18.67;;;;;;;-146.27;86.10;82058.78;5030117;28;20033;-66
2023/10/10 02:45:15;;;;;;;36.00;18.38;;;;;;;-146.27;86.51;82058.78;5021440;28;20033;-66
2023/10/10 02:47:46;;;;;;;32.65;18.35;;;;;;;-146.27;85.65;82082.88;5026098;28;20119;-67
2023/10/10 02:50:13;;;;;;;39.38;18.27;;;;;;;-146.27;86.08;82050.75;5028408;28;20033;-67
2023/10/10 02:52:39;;;;;;;36.53;20.95;;;;;;;-146.27;86.28;82058.78;5012296;28;20034;-67
2023/10/10 02:55:13;;;;;;;39.20;20.60;;;;;;;-146.27;86.32;82078.84;5026908;28;20489;-67
2023/10/10 02:57:39;;;;;;;40.88;20.27;;;;;;;-146.27;86.46;82060.78;5027885;28;20041;-67
2023/10/10 03:00:15;;;;;;;41.40;21.17;;;;;;;-146.27;86.65;82062.78;5025289;28;20108;-67
2023/10/10 03:02:49;;;;;;;44.78;21.70;;;;;;;-146.27;86.66;82090.91;5028989;28;20056;-67
2023/10/10 03:05:16;;;;;;;44.38;21.88;;;;;;;-146.27;86.83;82072.84;5022255;28;20030;-67
2023/10/10 03:07:44;;;;;;;46.75;23.33;;;;;;;-146.27;86.70;82066.81;5024228;28;20029;-67
2023/10/10 03:13:05;;;;;;;45.10;23.27;;;;;;;-146.27;86.94;82068.81;5028158;28;20075;-67
2023/10/10 03:15:33;;;;;;;51.00;24.20;;;;;;;-146.27;86.92;82034.66;5024763;28;20054;-68
2023/10/10 03:25:49;;;;;;;45.58;24.13;;;;;;;-146.27;86.77;82044.72;5016612;28;20490;-67
2023/10/10 03:28:20;;;;;;;46.50;23.70;;;;;;;-146.27;87.00;82042.69;5019157;28;20127;-67
2023/10/10 05:25:14;;;;;;;51.10;30.17;;;;;;;-146.27;86.72;82145.16;5021127;28;19919;-65
2023/10/10 05:27:43;;;;;;;61.03;31.25;;;;;;;-146.27;86.80;82147.16;5018022;28;20026;-65
2023/10/10 05:30:39;;;;;;;54.42;29.77;;;;;;;-146.27;86.43;82201.38;5030877;28;20022;-65
2023/10/10 05:33:05;;;;;;;54.55;30.63;;;;;;;-146.27;86.62;82167.25;5020846;28;20038;-67
2023/10/10 05:35:34;;;;;;;50.25;29.75;;;;;;;-146.27;86.61;82175.28;5018372;28;20105;-67
2023/10/10 05:38:01;;;;;;;59.03;32.55;;;;;;;-146.27;86.60;82175.28;5029107;28;20105;-68
2023/10/10 05:40:33;;;;;;;59.42;32.08;;;;;;;-146.27;86.60;82153.19;5032277;28;20056;-68
2023/10/10 05:42:59;;;;;;;55.72;30.25;;;;;;;-146.27;86.63;82179.28;5031299;28;20120;-67
2023/10/10 05:45:25;;;;;;;55.67;30.73;;;;;;;-146.27;86.49;82209.44;5027543;28;20121;-66
2023/10/10 05:47:51;;;;;;;52.70;30.55;;;;;;;-146.27;86.49;82191.34;5023386;28;20032;-66
2023/10/10 05:50:18;;;;;;;57.33;29.83;;;;;;;-146.27;86.39;82201.38;5029731;28;20426;-69
2023/10/10 05:52:44;;;;;;;59.38;30.63;;;;;;;-146.27;86.53;82275.72;5023088;28;20040;-69
2023/10/10 05:55:10;;;;;;;56.20;30.45;;;;;;;-146.27;86.00;82181.31;5017865;28;20034;-68
2023/10/10 05:57:42;;;;;;;57.42;32.00;;;;;;;-146.27;86.03;82175.28;5012938;28;20057;-69
2023/10/10 06:00:10;;;;;;;54.53;31.52;;;;;;;-146.27;85.94;82195.38;5013932;28;20034;-69
2023/10/10 06:02:47;;;;;;;55.22;30.73;;;;;;;-146.27;85.73;82119.03;5014409;28;20375;-68
2023/10/10 06:05:15;;;;;;;64.60;31.08;;;;;;;-146.27;85.75;82199.38;5017452;28;20037;-68
2023/10/10 06:07:44;;;;;;;58.53;31.45;;;;;;;-146.27;85.79;82195.38;5024678;28;20060;-69
2023/10/10 06:10:16;;;;;;;59.40;33.03;;;;;;;-146.27;85.86;82209.44;5018584;28;20168;-68
2023/10/10 06:12:46;;;;;;;60.45;32.25;;;;;;;-146.27;85.72;82193.34;5027318;28;20075;-72
2023/10/10 06:15:16;;;;;;;58.83;32.17;;;;;;;-146.27;85.94;82135.09;5011309;28;20171;-68
2023/10/10 06:17:42;;;;;;;58.80;31.20;;;;;;;-146.27;85.64;82201.38;5015788;28;20025;-68
2023/10/10 06:20:21;;;;;;;62.33;32.83;;;;;;;-146.27;85.66;82235.53;5015050;28;20028;-69
2023/10/10 06:22:48;;;;;;;55.35;29.85;;;;;;;-146.27;85.46;82155.19;5017775;28;20026;-69
2023/10/10 06:25:17;;;;;;;59.47;31.92;;;;;;;-146.27;85.48;82203.41;5023381;28;20025;-68
2023/10/10 06:27:54;;;;;;;65.38;31.92;;;;;;;-146.27;85.39;82171.25;5020128;28;20025;-69
2023/10/10 06:30:20;;;;;;;61.55;31.25;;;;;;;-146.27;85.26;82115.00;5029163;28;20038;-70
2023/10/10 06:32:47;;;;;;;58.78;31.65;;;;;;;-146.27;85.17;82163.22;5025196;28;20029;-69
2023/10/10 06:37:41;;;;;;;65.90;33.58;;;;;;;-146.27;84.96;82157.19;5020309;28;20046;-70
2023/10/10 06:40:09;;;;;;;64.22;31.05;;;;;;;-146.27;85.03;82181.31;5022203;28;20123;-68
2023/10/10 06:42:38;;;;;;;56.80;32.42;;;;;;;-146.27;84.85;82123.06;5015678;28;20037;-67
2023/10/10 06:45:08;;;;;;;59.95;32.08;;;;;;;-146.27;84.68;82143.13;5010710;28;20026;-67
2023/10/10 06:47:39;;;;;;;49.50;30.40;;;;;;;-146.27;84.71;82119.03;5011852;28;20371;-67
2023/10/10 06:50:10;;;;;;;57.15;30.45;;;;;;;-146.27;84.76;82171.25;5025790;28;20482;-67
2023/10/10 06:52:39;;;;;;;64.05;32.58;;;;;;;-146.27;84.37;82119.03;5008543;28;20065;-67
2023/10/10 06:55:20;;;;;;;57.83;31.10;;;;;;;-146.27;84.36;82070.81;5009813;28;20022;-67
2023/10/10 06:57:57;;;;;;;56.22;30.80;;;;;;;-146.27;84.75;82155.19;5009549;28;20044;-67
2023/10/10 07:03:11;;;;;;;59.00;31.02;;;;;;;-146.27;84.33;82121.03;5029192;28;20047;-67
2023/10/10 07:05:39;;;;;;;53.00;29.92;;;;;;;-146.27;84.17;82094.94;5017519;28;20026;-67
2023/10/10 07:11:01;;;;;;;62.88;31.27;;;;;;;-146.27;83.99;82115.00;5032974;28;20426;-67
2023/10/10 07:13:30;;;;;;;56.08;31.05;;;;;;;-146.27;84.29;82115.00;5027711;28;20057;-67
2023/10/10 07:15:59;;;;;;;61.95;31.15;;;;;;;-146.27;84.45;82117.03;5015883;28;20502;-67
2023/10/10 07:18:25;;;;;;;58.28;31.67;;;;;;;-146.27;84.56;82090.91;5016795;28;20026;-67
2023/10/10 07:21:06;;;;;;;53.97;29.92;;;;;;;-146.27;83.92;82062.78;5017600;28;20111;-67
2023/10/10 07:23:37;;;;;;;56.85;32.45;;;;;;;-146.27;83.82;82036.69;5013367;28;20025;-67
2023/10/10 07:26:06;;;;;;;59.70;32.50;;;;;;;-146.27;83.71;82042.69;5010666;28;20033;-65
2023/10/10 07:28:47;;;;;;;63.47;32.83;;;;;;;-146.27;83.88;82018.59;5026038;28;20108;-65
2023/10/10 07:31:17;;;;;;;55.10;30.50;;;;;;;-146.27;83.66;82038.69;5028496;28;20035;-65
2023/10/10 07:33:43;;;;;;;60.25;32.38;;;;;;;-146.27;83.88;82006.53;5030212;28;20029;-64
2023/10/10 07:36:13;;;;;;;58.67;31.83;;;;;;;-146.27;83.79;82014.59;5030411;28;20017;-65
2023/10/10 07:38:38;;;;;;;58.75;33.13;;;;;;;-146.27;83.67;82046.72;5030272;28;20057;-65
2023/10/10 07:41:04;;;;;;;56.13;33.30;;;;;;;-146.27;83.61;82014.59;5027550;28;20457;-65
2023/10/10 07:43:34;;;;;;;57.97;34.72;;;;;;;-146.27;83.60;81974.41;5010656;28;20108;-64
2023/10/10 07:46:18;;;;;;;55.42;33.58;;;;;;;-146.27;83.75;81990.47;5027752;28;20037;-65
2023/10/10 07:48:46;;;;;;;;;;;;;;;-146.27;83.33;81950.31;5011298;28;20030;-65
2023/10/10 07:51:16;;;;;;;54.92;34.17;;;;;;;-146.27;83.60;81958.34;5014863;28;19918;-65
2023/10/10 07:53:44;;;;;;;60.28;32.85;;;;;;;-146.27;83.53;81944.28;5027545;28;20021;-65
2023/10/10 07:56:10;;;;;;;55.95;30.23;;;;;;;-146.27;83.33;81882.00;5024970;28;20452;-65
2023/10/10 07:58:49;;;;;;;55.88;32.75;;;;;;;-146.27;83.83;81946.28;5028756;28;20017;-65
2023/10/10 08:01:18;;;;;;;62.17;32.75;;;;;;;-146.27;83.91;81930.22;5010904;28;20026;-65
2023/10/10 08:03:45;;;;;;;58.38;33.40;;;;;;;-146.27;83.55;81946.28;5025458;28;20397;-66
2023/10/10 08:06:16;;;;;;;58.78;34.92;;;;;;;-146.27;83.63;81888.03;5022663;28;20026;-68
2023/10/10 08:08:43;;;;;;;57.15;33.15;;;;;;;-146.27;84.00;81934.25;5022636;28;20517;-67
2023/10/10 08:11:24;;;;;;;62.67;35.55;;;;;;;-146.27;83.49;81902.09;5029089;28;20033;-68
2023/10/10 08:13:49;;;;;;;61.95;34.80;;;;;;;-146.27;83.43;81906.13;5026810;28;20109;-69
2023/10/10 08:16:20;;;;;;;58.17;33.22;;;;;;;-146.27;83.62;81894.06;5017814;28;20136;-68
2023/10/10 08:21:12;;;;;;;58.05;32.53;;;;;;;-146.27;83.01;81813.72;5021622;28;20049;-68
2023/10/10 08:23:46;;;;;;;52.38;30.90;;;;;;;-146.27;82.96;81757.50;5020994;28;20120;-68
2023/10/10 08:26:18;;;;;;;;;;;;;;;-146.27;82.53;81671.13;5012557;28;20429;-68
2023/10/10 08:28:47;;;;;;;48.63;28.38;;;;;;;-146.27;81.96;81671.13;5010691;28;19956;-67
2023/10/10 08:31:13;;;;;;;52.03;29.63;;;;;;;-146.27;81.96;81701.25;5014046;28;20040;-67
2023/10/10 08:33:40;;;;;;;51.97;29.88;;;;;;;-146.27;81.68;81729.38;5026991;28;20334;-68
2023/10/10 08:36:05;;;;;;;54.67;30.23;;;;;;;-146.27;81.71;81673.13;5010013;28;20092;-68
2023/10/10 08:38:31;;;;;;;50.60;29.10;;;;;;;-146.27;81.98;81745.44;5021988;28;20025;-68
2023/10/10 08:41:01;;;;;;;52.55;28.38;;;;;;;-146.27;81.61;81701.25;5023720;28;20470;-68
2023/10/10 08:43:31;;;;;;;49.42;29.38;;;;;;;-146.27;81.27;81624.94;5013853;28;20025;-68
2023/10/10 08:45:58;;;;;;;47.28;28.90;;;;;;;-146.27;80.68;81604.84;5010108;28;20482;-69
2023/10/10 08:48:26;;;;;;;44.22;27.58;;;;;;;-146.27;80.66;81606.84;5015979;28;20308;-68
2023/10/10 08:50:55;;;;;;;42.67;26.10;;;;;;;-146.27;80.45;81534.56;5013709;28;20117;-70
2023/10/10 08:53:22;;;;;;;47.80;30.08;;;;;;;-146.27;80.13;81510.44;5022429;28;20053;-70
2023/10/10 08:55:56;;;;;;;46.72;26.45;;;;;;;-146.27;80.05;81510.44;5013966;28;20030;-70
2023/10/10 08:58:22;;;;;;;46.53;26.08;;;;;;;-146.27;79.50;81456.22;5015188;28;20105;-70
2023/10/10 09:00:48;;;;;;;42.95;24.80;;;;;;;-146.27;79.31;81456.22;5023138;28;20079;-69
2023/10/10 09:03:14;;;;;;;46.30;27.27;;;;;;;-146.27;80.54;81590.78;5025028;28;20227;-69
2023/10/10 09:05:39;;;;;;;41.47;26.63;;;;;;;-146.27;79.60;81546.59;5013406;28;20428;-69
2023/10/10 09:08:14;;;;;;;44.88;26.50;;;;;;;-146.27;79.65;81472.28;5026029;28;20025;-68
2023/10/10 09:10:40;;;;;;;42.70;26.05;;;;;;;-146.27;79.55;81468.28;5019803;28;20095;-69
2023/10/10 09:13:13;;;;;;;41.50;26.23;;;;;;;-146.27;79.25;81474.31;5013466;28;20030;-69
2023/10/10 09:15:54;;;;;;;46.90;24.58;;;;;;;-146.27;78.65;81319.66;5010919;28;20076;-68
2023/10/10 09:18:23;;;;;;;42.58;23.75;;;;;;;-146.27;77.69;81265.44;5018485;28;20037;-68
2023/10/10 09:20:50;;;;;;;45.72;24.35;;;;;;;-146.27;76.79;81175.06;5032067;28;20021;-69
2023/10/10 09:23:38;;;;;;;38.78;24.08;;;;;;;-146.27;75.94;81259.41;5032154;28;20029;-69
2023/10/10 09:28:58;;;;;;;36.20;22.30;;;;;;;-146.27;74.93;81130.88;5032981;28;20037;-69
2023/10/10 09:31:27;;;;;;;40.47;22.80;;;;;;;-146.27;73.73;81114.81;5031137;28;20048;-69
2023/10/10 09:33:56;;;;;;;36.65;23.58;;;;;;;-146.27;74.38;81169.03;5030042;28;20083;-67
2023/10/10 09:36:26;;;;;;;33.28;21.38;;;;;;;-146.27;74.44;81146.97;5015454;28;20097;-67
2023/10/10 09:38:56;;;;;;;40.50;23.50;;;;;;;-146.27;74.07;80976.25;5015938;28;20028;-66
2023/10/10 09:41:36;;;;;;;37.30;21.20;;;;;;;-146.27;73.04;80905.97;5030535;28;20112;-66
2023/10/10 09:49:51;;;;;;;35.03;20.60;;;;;;;-146.27;71.42;80849.75;5012824;28;20041;-66
2023/10/10 09:57:58;;;;;;;30.73;19.63;;;;;;;-146.27;71.25;80821.63;5015424;28;20037;-69
2023/10/10 10:00:45;;;;;;;29.70;19.25;;;;;;;-146.27;71.46;80841.72;5012473;28;20025;-70
2023/10/10 10:05:59;;;;;;;31.13;19.45;;;;;;;-146.27;70.69;80867.81;5032300;28;20030;-70
2023/10/10 10:08:37;;;;;;;33.83;18.92;;;;;;;-146.27;71.08;80821.63;5016448;28;20234;-70
2023/10/10 10:11:11;;;;;;;35.30;18.98;;;;;;;-146.27;70.32;80703.16;5011952;28;20113;-69
2023/10/10 10:14:14;;;;;;;29.50;20.10;;;;;;;-146.27;69.68;80556.59;5020918;28;20450;-70
2023/10/10 10:16:47;;;;;;;32.05;20.13;;;;;;;-146.27;68.29;80606.78;5032549;28;20060;-70
2023/10/10 10:19:17;;;;;;;32.17;19.27;;;;;;;-146.27;68.41;80520.44;5039097;28;20032;-70
2023/10/10 10:21:53;;;;;;;36.28;20.27;;;;;;;-146.27;68.19;80387.94;5029886;28;20055;-70
2023/10/10 10:24:32;;;;;;;29.88;17.77;;;;;;;-146.27;66.67;80309.63;5028886;28;20033;-70
2023/10/10 10:27:43;;;;;;;35.03;19.35;;;;;;;-146.27;67.76;80484.31;5023171;28;20032;-70
2023/10/10 10:30:26;;;;;;;33.60;20.02;;;;;;;-146.27;67.45;80345.78;5033274;28;20064;-69
2023/10/10 10:32:54;;;;;;;29.65;18.63;;;;;;;-146.27;66.67;80528.47;5025780;28;20040;-69
2023/10/10 10:35:36;;;;;;;28.67;17.45;;;;;;;-146.27;66.13;80414.03;5012795;28;20018;-69
2023/10/10 10:38:06;;;;;;;30.98;17.50;;;;;;;-146.27;66.08;80395.97;5023930;28;20087;-69
2023/10/10 10:43:14;;;;;;;28.77;16.75;;;;;;;-146.27;65.85;80110.88;5020995;28;20497;-69
2023/10/10 10:45:44;;;;;;;28.50;18.60;;;;;;;-146.27;65.04;80181.13;5026833;28;20029;-69
2023/10/10 10:48:29;;;;;;;29.10;18.17;;;;;;;-146.27;64.63;80245.38;5011976;28;20486;-69
2023/10/10 10:50:58;;;;;;;25.85;17.30;;;;;;;-146.27;65.10;80038.59;5012444;28;20543;-69
2023/10/10 10:53:35;;;;;;;27.83;18.05;;;;;;;-146.27;63.37;79978.38;5015591;28;20034;-69
2023/10/10 10:59:12;;;;;;;29.08;19.38;;;;;;;-146.27;63.81;80068.69;5020342;28;20116;-66
2023/10/10 11:01:51;;;;;;;30.95;17.40;;;;;;;-146.27;64.71;80223.28;5014363;28;21238;-67
2023/10/10 11:07:25;;;;;;;26.00;16.60;;;;;;;-146.27;63.36;79964.31;5011234;28;20034;-66
2023/10/10 11:10:06;;;;;;;23.67;14.57;;;;;;;-146.27;62.21;79811.72;5012280;28;20152;-66
2023/10/10 11:12:31;;;;;;;24.50;15.95;;;;;;;-146.27;61.04;79857.91;5013854;28;20026;-66
2023/10/10 11:14:58;;;;;;;25.17;15.35;;;;;;;-146.27;60.18;79749.50;5030110;28;20086;-66
2023/10/10 11:17:24;;;;;;;24.80;15.82;;;;;;;-146.27;60.98;79516.63;5029236;28;20067;-67
2023/10/10 11:19:55;;;;;;;25.05;15.60;;;;;;;-146.27;59.08;79480.50;5029427;28;20057;-67
2023/10/10 11:22:39;;;;;;;21.80;15.65;;;;;;;-146.27;57.91;79344.00;5030574;28;20021;-67
2023/10/10 11:25:08;;;;;;;25.67;15.15;;;;;;;-146.27;55.94;79231.59;5029597;28;20373;-67
2023/10/10 11:27:43;;;;;;;26.67;16.23;;;;;;;-146.27;55.48;79239.63;5029250;28;20519;-67
2023/10/10 11:30:11;;;;;;;23.15;15.30;;;;;;;-146.27;56.84;79215.53;5029824;28;20112;-66
2023/10/10 11:32:46;;;;;;;24.80;14.45;;;;;;;-146.27;56.03;78954.63;5017458;28;20597;-67
2023/10/10 11:35:26;;;;;;;24.52;14.65;;;;;;;-146.27;54.78;78878.34;5023719;28;20115;-69
2023/10/10 11:38:09;;;;;;;33.63;15.40;;;;;;;-146.27;54.97;78864.31;5029319;28;20040;-69
2023/10/10 11:40:36;;;;;;;;;;;;;;;-146.27;53.09;78798.06;5021835;28;20026;-70
2023/10/10 11:43:03;;;;;;;26.08;14.80;;;;;;;-146.27;51.69;78460.91;5010538;28;19968;-68
2023/10/10 11:45:30;;;;;;;22.10;14.77;;;;;;;-146.27;49.94;78314.41;5011051;28;20064;-67
2023/10/10 11:48:10;;;;;;;24.50;15.20;;;;;;;-146.27;51.91;79016.84;5010486;28;20022;-67
2023/10/10 11:50:56;;;;;;;22.63;13.90;;;;;;;-146.27;54.20;79010.81;5018884;28;20033;-67
2023/10/10 11:53:27;;;;;;;22.27;14.00;;;;;;;-146.27;52.49;78924.50;5025327;28;20029;-67
2023/10/10 11:55:54;;;;;;;20.10;13.52;;;;;;;-146.27;52.08;78667.63;5017167;28;20107;-67
2023/10/10 11:58:23;;;;;;;26.55;14.20;;;;;;;-146.27;49.15;78436.81;5029567;28;20025;-66
2023/10/10 12:01:04;;;;;;;24.02;12.93;;;;;;;-146.27;49.14;78228.13;5017868;28;20478;-67
2023/10/10 12:06:18;;;;;;;22.80;12.52;;;;;;;-146.27;47.71;77694.38;5030167;28;20083;-67
2023/10/10 12:08:46;;;;;;;25.20;12.95;;;;;;;-146.27;48.23;78278.28;5021860;28;20022;-67
2023/10/10 12:11:12;;;;;;;19.17;13.68;;;;;;;-146.27;49.52;78472.94;5026488;28;20033;-67
2023/10/10 12:13:38;;;;;;;20.67;13.38;;;;;;;-146.27;47.71;78097.69;5011308;28;20114;-67
2023/10/10 12:16:07;;;;;;;20.98;12.30;;;;;;;-146.27;47.84;77997.34;5021035;28;20054;-66
2023/10/10 12:18:34;;;;;;;16.88;12.07;;;;;;;-146.27;47.71;78300.34;5013337;28;20084;-67
2023/10/10 12:21:01;;;;;;;25.10;12.50;;;;;;;-146.27;48.59;78360.56;5021174;28;20112;-66
2023/10/10 12:23:28;;;;;;;20.08;11.43;;;;;;;-146.27;49.76;78392.66;5020156;28;20105;-67
2023/10/10 12:25:56;;;;;;;21.58;12.25;;;;;;;-146.27;50.37;78573.28;5014639;28;20022;-67
2023/10/10 12:28:21;;;;;;;22.52;12.70;;;;;;;-146.27;51.29;78802.09;5025092;28;20034;-67
2023/10/10 12:30:48;;;;;;;18.48;12.55;;;;;;;-146.27;51.18;78747.88;5029007;28;20136;-68
2023/10/10 12:33:16;;;;;;;22.35;11.45;;;;;;;-146.27;50.24;78595.38;5025974;28;20029;-67
2023/10/10 12:35:43;;;;;;;23.40;10.95;;;;;;;-146.27;49.63;78472.94;5010343;28;20046;-69
2023/10/10 12:38:10;;;;;;;19.42;10.88;;;;;;;-146.27;50.22;78484.97;5014700;28;20029;-67
2023/10/10 12:40:36;;;;;;;23.88;11.85;;;;;;;-146.27;49.06;78489.00;5028633;28;20079;-67
2023/10/10 12:43:01;;;;;;;18.42;11.90;;;;;;;-146.27;48.60;78103.69;5020652;28;20030;-67
2023/10/10 12:45:32;;;;;;;17.00;10.75;;;;;;;-146.27;47.02;77915.09;5020248;28;20043;-68
2023/10/10 12:47:58;;;;;;;20.92;10.88;;;;;;;-146.27;49.12;78511.06;5021900;28;20109;-67
2023/10/10 12:50:26;;;;;;;19.40;11.07;;;;;;;-146.27;50.99;78844.22;5027251;28;20112;-69
2023/10/10 12:53:30;;;;;;;16.95;10.68;;;;;;;-146.27;51.22;78737.84;5017932;28;20034;-68
2023/10/10 12:56:03;;;;;;;18.77;10.73;;;;;;;-146.27;52.95;78731.84;5012919;28;20034;-68
2023/10/10 12:58:30;;;;;;;26.00;11.45;;;;;;;-146.27;53.78;78962.66;5013834;28;20101;-67
2023/10/10 13:00:57;;;;;;;20.60;10.40;;;;;;;-146.27;52.00;78966.66;5014151;28;20049;-67
2023/10/10 13:03:29;;;;;;;18.42;9.75;;;;;;;-146.27;52.44;78729.84;5014751;28;20021;-68
2023/10/10 13:06:00;;;;;;;17.65;7.93;;;;;;;-146.27;49.66;78551.22;5013348;28;20026;-67
2023/10/10 13:08:39;;;;;;;15.43;8.77;;;;;;;-146.27;49.01;78765.97;5020317;28;20033;-67
2023/10/10 13:11:12;;;;;;;17.75;7.80;;;;;;;-146.27;48.99;78687.69;5019480;28;20029;-67
2023/10/10 13:13:45;;;;;;;16.67;8.40;;;;;;;-146.27;48.77;78593.34;5029162;28;20029;-69
2023/10/10 13:18:54;;;;;;;15.68;7.55;;;;;;;-146.27;48.25;78709.75;5029435;28;20040;-68
2023/10/10 13:21:20;;;;;;;15.75;8.10;;;;;;;-146.27;48.34;78713.78;5044570;28;20557;-68
2023/10/10 13:23:49;;;;;;;13.90;6.95;;;;;;;-146.27;49.28;78810.09;5041095;28;20054;-67
2023/10/10 13:26:16;;;;;;;20.52;6.85;;;;;;;-146.27;47.45;79054.97;5026721;28;20025;-67
2023/10/10 13:28:44;;;;;;;10.30;5.43;;;;;;;-146.27;45.61;79323.94;5025257;28;20025;-67
2023/10/10 13:31:18;;;;;;;12.52;5.30;;;;;;;-146.27;45.76;79327.94;5047051;28;20064;-67
2023/10/10 13:33:45;;;;;;;12.23;5.70;;;;;;;-146.27;46.48;79574.84;5029375;28;20413;-67
2023/10/10 13:36:14;;;;;;;14.07;5.45;;;;;;;-146.27;47.66;79741.47;5031047;28;20029;-67
2023/10/10 13:38:48;;;;;;;18.85;5.95;;;;;;;-146.27;47.96;79546.75;5042385;28;20128;-68
2023/10/10 13:41:16;;;;;;;17.30;6.32;;;;;;;-146.27;48.70;79719.38;5022798;28;20437;-67
2023/10/10 13:43:44;;;;;;;12.13;5.28;;;;;;;-146.27;48.71;79757.53;5027543;28;20022;-67
2023/10/10 13:46:09;;;;;;;15.65;5.18;;;;;;;-146.27;50.33;79940.22;5022797;28;20513;-68
2023/10/10 13:48:36;;;;;;;16.65;5.60;;;;;;;-146.27;50.19;79849.88;5028196;28;20021;-67
2023/10/10 13:51:04;;;;;;;14.63;5.43;;;;;;;-146.27;50.98;79922.16;5034675;28;20405;-66
2023/10/10 13:53:31;;;;;;;17.42;6.05;;;;;;;-146.27;50.98;79914.13;5033426;28;20035;-67
2023/10/10 13:56:00;;;;;;;9.73;5.20;;;;;;;-146.27;50.42;79910.09;5032776;28;20026;-67
2023/10/10 13:58:26;;;;;;;13.18;5.20;;;;;;;-146.27;50.28;79837.84;5040537;28;20024;-67
2023/10/10 14:01:36;;;;;;;12.15;4.72;;;;;;;-146.27;50.16;79815.75;5033391;28;20030;-67
2023/10/10 14:03:48;;;;;;;10.27;5.10;;;;;;;-146.27;49.95;79671.22;5024277;28;20120;-68
2023/10/10 14:06:19;;;;;;;11.48;5.47;;;;;;;-146.27;49.57;79711.38;5025762;28;20041;-67
2023/10/10 14:08:47;;;;;;;12.00;5.68;;;;;;;-146.27;48.58;79697.31;5034904;28;20359;-67
2023/10/10 14:11:20;;;;;;;17.48;4.80;;;;;;;-146.27;48.97;79671.22;5041962;28;20018;-67
2023/10/10 14:13:47;;;;;;;12.02;5.28;;;;;;;-146.27;47.67;79582.88;5034075;28;20509;-67